Time;durP1;ratioP1;P1;durP2;ratioP2;P2;SDS_P1;SDS_P2;PMS_P1;PMS_P2;Temp;Humidity;BMP_temperature;BMP_pressure;BME280_temperature;BME280_humidity;BME280_pressure;Samples;Min_cycle;Max_cycle;Signal;HPM_P1;HPM_P2
2022/03/05 00:01:24;;;;;;;19.03;13.50;;;3.60;77.40;;;;;;5064528;28;21078;-52
2022/03/05 00:03:50;;;;;;;17.83;13.37;;;3.60;78.00;;;;;;5063070;28;20182;-52
2022/03/05 00:06:15;;;;;;;18.70;13.47;;;3.60;77.30;;;;;;5063291;28;20170;-48
2022/03/05 00:08:41;;;;;;;17.40;12.53;;;3.70;77.50;;;;;;5064455;28;20257;-52
2022/03/05 00:11:07;;;;;;;18.87;12.73;;;3.70;77.60;;;;;;5062313;28;20199;-48
2022/03/05 00:13:33;;;;;;;17.17;13.23;;;3.60;77.70;;;;;;5063880;28;20182;-50
2022/03/05 00:15:58;;;;;;;17.80;12.63;;;3.60;77.40;;;;;;5063613;28;20198;-49
2022/03/05 00:18:24;;;;;;;18.43;13.67;;;3.60;77.60;;;;;;5062365;28;20258;-48
2022/03/05 00:20:51;;;;;;;20.17;13.77;;;3.60;77.10;;;;;;5062798;28;20170;-50
2022/03/05 00:23:18;;;;;;;17.97;13.73;;;3.70;77.20;;;;;;5063524;28;20241;-47
2022/03/05 00:25:43;;;;;;;18.27;13.13;;;3.60;77.60;;;;;;5061878;28;20886;-52
2022/03/05 00:28:09;;;;;;;15.17;11.87;;;3.60;79.30;;;;;;5064140;28;20491;-48
2022/03/05 00:30:35;;;;;;;15.87;12.17;;;3.40;80.80;;;;;;5063282;28;20254;-49
2022/03/05 00:33:01;;;;;;;17.00;13.00;;;3.30;81.40;;;;;;5062364;28;20467;-48
2022/03/05 00:35:26;;;;;;;17.70;13.03;;;3.20;82.60;;;;;;5063744;28;20202;-49
2022/03/05 00:37:52;;;;;;;19.33;14.03;;;3.20;83.10;;;;;;5062577;28;20171;-49
2022/03/05 00:40:18;;;;;;;17.33;13.00;;;3.10;83.00;;;;;;5062661;28;20189;-50
2022/03/05 00:42:43;;;;;;;18.30;13.40;;;3.10;82.80;;;;;;5063983;28;20198;-47
2022/03/05 00:45:09;;;;;;;17.30;12.27;;;3.20;82.80;;;;;;5062069;28;20175;-52
2022/03/05 00:47:35;;;;;;;18.63;13.17;;;3.20;82.70;;;;;;5062700;28;20171;-49
2022/03/05 00:50:03;;;;;;;17.10;12.73;;;3.20;82.00;;;;;;5063467;28;20416;-52
2022/03/05 00:52:29;;;;;;;17.30;12.13;;;3.30;81.40;;;;;;5059291;28;20456;-49
2022/03/05 00:54:55;;;;;;;19.27;12.93;;;3.30;80.80;;;;;;5062809;28;20905;-51
2022/03/05 00:57:20;;;;;;;17.50;12.90;;;3.30;80.20;;;;;;5063103;28;20203;-49
2022/03/05 00:59:46;;;;;;;17.63;12.47;;;3.30;80.10;;;;;;5061547;28;20209;-48
2022/03/05 01:02:11;;;;;;;19.60;12.77;;;3.30;80.10;;;;;;5061280;28;20698;-52
2022/03/05 01:04:37;;;;;;;16.23;12.93;;;3.40;80.20;;;;;;5062743;28;20182;-52
2022/03/05 01:07:03;;;;;;;20.73;13.80;;;3.40;80.00;;;;;;5061423;28;20270;-51
2022/03/05 01:09:28;;;;;;;19.17;13.97;;;3.40;80.40;;;;;;5058760;28;20646;-54
2022/03/05 01:11:54;;;;;;;18.50;13.40;;;3.30;81.40;;;;;;5062488;28;20199;-49
2022/03/05 01:14:19;;;;;;;19.17;13.97;;;3.30;82.10;;;;;;5062824;28;20187;-47
2022/03/05 01:16:45;;;;;;;17.07;12.77;;;3.30;81.40;;;;;;5059629;28;20201;-50
2022/03/05 01:19:11;;;;;;;18.37;13.43;;;3.30;82.10;;;;;;5062716;28;20183;-53
2022/03/05 01:21:36;;;;;;;19.23;12.87;;;3.40;82.10;;;;;;5057698;28;20225;-50
2022/03/05 01:24:02;;;;;;;16.73;12.87;;;3.40;81.60;;;;;;5061805;28;20232;-51
2022/03/05 01:26:29;;;;;;;17.50;13.07;;;3.40;81.50;;;;;;5060900;28;20179;-51
2022/03/05 01:28:55;;;;;;;17.03;12.50;;;3.40;81.30;;;;;;5062067;28;20185;-49
2022/03/05 01:31:21;;;;;;;16.23;12.63;;;3.40;80.90;;;;;;5062772;28;20831;-51
2022/03/05 01:33:47;;;;;;;17.23;12.33;;;3.50;80.80;;;;;;5060912;28;20451;-50
2022/03/05 01:36:12;;;;;;;20.67;13.67;;;3.50;80.50;;;;;;5062055;28;20199;-50
2022/03/05 01:38:38;;;;;;;16.93;12.53;;;3.50;80.20;;;;;;5062143;28;20183;-55
2022/03/05 01:41:04;;;;;;;19.07;13.17;;;3.50;80.00;;;;;;5060915;28;20191;-48
2022/03/05 01:43:29;;;;;;;17.23;13.13;;;3.50;80.00;;;;;;5062653;28;20738;-48
2022/03/05 01:45:55;;;;;;;17.33;13.43;;;3.50;80.60;;;;;;5060208;28;20178;-50
2022/03/05 01:48:20;;;;;;;18.63;13.83;;;3.60;81.00;;;;;;5060945;28;20185;-51
2022/03/05 01:50:47;;;;;;;17.80;13.80;;;3.50;80.90;;;;;;5062686;28;20265;-50
2022/03/05 01:53:13;;;;;;;19.37;14.60;;;3.50;81.10;;;;;;5061283;28;20652;-49
2022/03/05 01:55:39;;;;;;;17.53;13.37;;;3.50;81.90;;;;;;5060801;28;20514;-50
2022/03/05 01:58:04;;;;;;;19.47;14.03;;;3.40;81.50;;;;;;5062624;28;20890;-53
2022/03/05 02:00:30;;;;;;;17.90;13.50;;;3.40;81.50;;;;;;5060890;28;20171;-50
2022/03/05 02:02:56;;;;;;;17.63;13.50;;;3.50;82.40;;;;;;5061275;28;20214;-47
2022/03/05 02:05:23;;;;;;;18.67;13.80;;;3.40;82.40;;;;;;5061188;28;20179;-51
2022/03/05 02:07:49;;;;;;;18.43;13.47;;;3.40;82.40;;;;;;5057708;28;20640;-49
2022/03/05 02:10:15;;;;;;;20.43;13.97;;;3.40;82.30;;;;;;5061677;28;20417;-51
2022/03/05 02:12:40;;;;;;;20.30;14.57;;;3.40;82.10;;;;;;5062023;28;20236;-51
2022/03/05 02:15:07;;;;;;;19.83;14.63;;;3.40;82.10;;;;;;5059646;28;20179;-48
2022/03/05 02:17:34;;;;;;;20.80;14.80;;;3.40;81.90;;;;;;5061420;28;20223;-51
2022/03/05 02:19:59;;;;;;;20.87;14.67;;;3.40;82.10;;;;;;5061907;28;20504;-49
2022/03/05 02:22:25;;;;;;;22.60;15.83;;;3.40;82.50;;;;;;5060102;28;20481;-50
2022/03/05 02:24:53;;;;;;;19.33;14.03;;;3.30;83.20;;;;;;5060673;28;20177;-54
2022/03/05 02:27:21;;;;;;;21.00;15.27;;;3.30;83.30;;;;;;5061453;28;20175;-51
2022/03/05 02:29:47;;;;;;;20.63;15.30;;;3.10;85.30;;;;;;5060123;28;20462;-51
2022/03/05 02:32:13;;;;;;;19.73;14.57;;;2.90;86.90;;;;;;5061554;28;20997;-52
2022/03/05 02:34:38;;;;;;;19.53;13.13;;;2.80;87.60;;;;;;5061599;28;20175;-50
2022/03/05 02:37:04;;;;;;;18.23;12.83;;;2.70;88.50;;;;;;5059704;28;20199;-49
2022/03/05 02:39:29;;;;;;;29.97;19.80;;;2.60;89.30;;;;;;5061944;28;20186;-49
2022/03/05 02:41:55;;;;;;;22.50;14.80;;;2.60;90.10;;;;;;5061037;28;20186;-48
2022/03/05 02:44:22;;;;;;;20.17;13.90;;;2.60;89.80;;;;;;5060397;28;20170;-50
2022/03/05 02:46:49;;;;;;;20.90;13.37;;;2.50;90.10;;;;;;5056339;28;20497;-51
2022/03/05 02:49:15;;;;;;;17.77;12.97;;;2.50;89.50;;;;;;5061040;28;20410;-49
2022/03/05 02:51:41;;;;;;;19.30;14.33;;;2.50;88.90;;;;;;5060238;28;20438;-49
2022/03/05 02:54:07;;;;;;;20.13;13.83;;;2.50;88.20;;;;;;5061827;28;20171;-53
2022/03/05 02:56:32;;;;;;;20.30;14.30;;;2.60;87.70;;;;;;5059014;28;20245;-50
2022/03/05 02:58:58;;;;;;;18.73;13.63;;;2.60;88.30;;;;;;5060649;28;20244;-46
2022/03/05 03:01:24;;;;;;;18.47;13.20;;;2.50;89.20;;;;;;5061686;28;20701;-48
2022/03/05 03:03:50;;;;;;;17.13;12.73;;;2.60;89.20;;;;;;5060309;28;20167;-50
2022/03/05 03:06:15;;;;;;;17.20;12.57;;;2.60;88.00;;;;;;5152854;22;20407;-55
2022/03/05 03:08:41;;;;;;;18.90;13.20;;;2.60;87.70;;;;;;5048005;28;20175;-48
2022/03/05 03:11:07;;;;;;;17.73;13.17;;;2.60;87.40;;;;;;5050119;28;20182;-54
2022/03/05 03:13:32;;;;;;;19.20;13.00;;;2.50;87.00;;;;;;5050539;28;20249;-56
2022/03/05 03:15:58;;;;;;;19.40;13.90;;;2.50;87.10;;;;;;5049432;28;20211;-56
2022/03/05 03:18:24;;;;;;;18.87;13.23;;;2.50;86.80;;;;;;5030551;28;20536;-48
2022/03/05 03:20:49;;;;;;;17.07;12.47;;;2.50;87.40;;;;;;5030974;28;20164;-55
2022/03/05 03:23:15;;;;;;;18.70;13.53;;;2.50;86.80;;;;;;5031115;28;20199;-55
2022/03/05 03:25:40;;;;;;;16.90;12.67;;;2.50;86.40;;;;;;5031539;28;20560;-55
2022/03/05 03:28:07;;;;;;;19.77;14.07;;;2.40;86.90;;;;;;5034195;28;20707;-53
2022/03/05 03:30:32;;;;;;;18.90;12.93;;;2.40;87.20;;;;;;5034591;28;20180;-56
2022/03/05 03:32:58;;;;;;;17.90;13.43;;;2.40;87.60;;;;;;5034544;28;20417;-54
2022/03/05 03:35:24;;;;;;;20.30;13.63;;;2.40;87.90;;;;;;5034507;28;20195;-52
2022/03/05 03:37:50;;;;;;;19.73;13.07;;;2.30;87.20;;;;;;5034075;28;20728;-49
2022/03/05 03:40:17;;;;;;;17.40;12.07;;;2.30;86.90;;;;;;5034370;28;20641;-54
2022/03/05 03:42:45;;;;;;;18.23;13.00;;;2.30;86.50;;;;;;5034077;28;20406;-55
2022/03/05 03:45:11;;;;;;;19.90;13.67;;;2.30;87.30;;;;;;5034326;28;20406;-57
2022/03/05 03:47:39;;;;;;;21.57;13.73;;;2.20;87.20;;;;;;5033791;28;20488;-56
2022/03/05 03:50:06;;;;;;;18.67;13.37;;;2.20;87.60;;;;;;5034071;28;20899;-58
2022/03/05 03:52:31;;;;;;;19.10;14.07;;;2.20;88.10;;;;;;5034250;28;21002;-54
2022/03/05 03:54:57;;;;;;;19.07;13.10;;;2.20;88.70;;;;;;5034250;28;20410;-56
2022/03/05 03:57:23;;;;;;;19.10;13.20;;;2.10;88.90;;;;;;5033810;28;20771;-56
2022/03/05 03:59:51;;;;;;;20.47;14.47;;;2.10;89.40;;;;;;5033801;28;20645;-56
2022/03/05 04:02:20;;;;;;;17.83;12.97;;;2.10;90.10;;;;;;5033692;28;20251;-53
2022/03/05 04:04:47;;;;;;;19.60;13.77;;;2.10;89.20;;;;;;5033978;28;20504;-57
2022/03/05 04:09:56;;;;;;;20.80;14.30;;;2.00;90.20;;;;;;5033855;28;20421;-54
2022/03/05 04:12:22;;;;;;;19.90;14.83;;;2.10;90.40;;;;;;5032676;28;20418;-56
2022/03/05 04:14:48;;;;;;;20.73;14.30;;;2.00;90.30;;;;;;5033467;28;20183;-55
2022/03/05 04:17:14;;;;;;;21.83;15.30;;;2.00;90.40;;;;;;5032928;28;20466;-55
2022/03/05 04:19:39;;;;;;;21.73;14.97;;;2.10;90.40;;;;;;5033718;28;20562;-55
2022/03/05 04:22:05;;;;;;;20.27;14.77;;;2.10;90.70;;;;;;5033613;28;20171;-56
2022/03/05 04:24:31;;;;;;;22.27;14.83;;;2.10;90.80;;;;;;5033573;28;20180;-56
2022/03/05 04:26:56;;;;;;;20.30;15.10;;;2.10;90.70;;;;;;5032317;28;20728;-56
2022/03/05 04:29:22;;;;;;;22.00;14.97;;;2.00;91.60;;;;;;5033158;28;20182;-56
2022/03/05 04:31:48;;;;;;;20.27;15.13;;;2.00;91.30;;;;;;5033722;28;20175;-55
2022/03/05 04:34:13;;;;;;;24.00;15.10;;;2.00;91.20;;;;;;5033408;28;20516;-52
2022/03/05 04:36:39;;;;;;;22.23;15.63;;;2.00;91.20;;;;;;5032392;28;20204;-55
2022/03/05 04:39:04;;;;;;;21.77;15.00;;;2.00;91.90;;;;;;5032268;28;20176;-55
2022/03/05 04:41:30;;;;;;;22.60;15.50;;;2.60;91.50;;;;;;5033120;28;20182;-56
2022/03/05 04:43:56;;;;;;;21.17;15.13;;;2.00;91.50;;;;;;5033107;28;20172;-54
2022/03/05 04:46:21;;;;;;;22.37;15.33;;;2.00;91.80;;;;;;5031676;28;20191;-51
2022/03/05 04:48:47;;;;;;;21.30;15.27;;;2.10;92.20;;;;;;5033043;28;20255;-56
2022/03/05 04:51:12;;;;;;;22.80;15.87;;;2.10;92.30;;;;;;5032719;28;20172;-55
2022/03/05 04:53:38;;;;;;;20.33;14.73;;;2.10;92.10;;;;;;5032848;28;20652;-53
2022/03/05 04:56:04;;;;;;;23.00;15.40;;;2.10;92.00;;;;;;5032603;28;20195;-51
2022/03/05 04:58:29;;;;;;;23.77;16.23;;;2.10;92.30;;;;;;5032378;28;20171;-54
2022/03/05 05:00:55;;;;;;;23.50;15.17;;;2.20;92.30;;;;;;5031523;28;20651;-48
2022/03/05 05:03:20;;;;;;;21.07;14.63;;;2.10;92.70;;;;;;5031968;28;20180;-54
2022/03/05 05:05:46;;;;;;;21.20;15.70;;;2.10;92.70;;;;;;5031883;28;20183;-52
2022/03/05 05:08:13;;;;;;;22.43;15.20;;;2.10;92.70;;;;;;5032233;28;20653;-55
2022/03/05 05:10:38;;;;;;;22.20;15.20;;;2.20;92.80;;;;;;5032544;28;20192;-53
2022/03/05 05:13:04;;;;;;;21.93;15.50;;;2.20;92.90;;;;;;5032627;28;20453;-50
2022/03/05 05:15:29;;;;;;;20.80;15.17;;;2.20;93.20;;;;;;5031392;28;20200;-50
2022/03/05 05:17:59;;;;;;;23.27;16.70;;;2.20;93.20;;;;;;5032143;28;20227;-49
2022/03/05 05:20:25;;;;;;;23.03;16.00;;;2.20;93.30;;;;;;5031258;28;20625;-52
2022/03/05 05:22:50;;;;;;;21.77;15.40;;;2.30;93.30;;;;;;5032327;28;20489;-48
2022/03/05 05:25:16;;;;;;;22.97;16.10;;;2.30;93.30;;;;;;5032088;28;20234;-54
2022/03/05 05:27:41;;;;;;;25.50;16.17;;;2.40;93.20;;;;;;5030827;28;20732;-53
2022/03/05 05:30:08;;;;;;;24.00;16.77;;;2.50;93.20;;;;;;5032547;28;20586;-49
2022/03/05 05:32:34;;;;;;;24.87;17.77;;;2.50;93.20;;;;;;5032483;28;20179;-50
2022/03/05 05:35:00;;;;;;;23.50;16.77;;;2.50;93.10;;;;;;5032467;28;20403;-51
2022/03/05 05:37:26;;;;;;;23.03;16.83;;;2.60;92.90;;;;;;5031057;28;20311;-54
2022/03/05 05:39:51;;;;;;;23.97;16.53;;;2.60;92.90;;;;;;5032017;28;20175;-49
2022/03/05 05:42:17;;;;;;;22.23;15.47;;;2.70;92.80;;;;;;5031670;28;20175;-54
2022/03/05 05:44:42;;;;;;;21.50;15.60;;;2.70;92.80;;;;;;5031558;28;20668;-50
2022/03/05 05:47:09;;;;;;;26.53;16.70;;;2.70;92.60;;;;;;5031892;28;20192;-54
2022/03/05 05:49:35;;;;;;;25.60;16.87;;;2.80;92.60;;;;;;5031146;28;20191;-50
2022/03/05 05:52:01;;;;;;;31.70;17.87;;;2.90;92.30;;;;;;5032257;28;20410;-50
2022/03/05 05:54:27;;;;;;;33.73;18.93;;;2.90;92.30;;;;;;5031874;28;20449;-51
2022/03/05 05:56:52;;;;;;;35.23;18.87;;;2.90;92.40;;;;;;5031009;28;20566;-51
2022/03/05 05:59:19;;;;;;;34.93;18.63;;;2.90;92.50;;;;;;5030769;28;20402;-53
2022/03/05 06:01:44;;;;;;;33.13;18.57;;;3.00;92.30;;;;;;5030854;28;20257;-52
2022/03/05 06:04:10;;;;;;;29.33;17.30;;;3.00;92.20;;;;;;5032002;28;20430;-52
2022/03/05 06:06:35;;;;;;;24.03;15.97;;;3.00;92.30;;;;;;5031105;28;20211;-50
2022/03/05 06:09:01;;;;;;;20.53;13.97;;;3.00;92.20;;;;;;5031597;28;20174;-55
2022/03/05 06:11:26;;;;;;;21.10;14.50;;;3.10;92.10;;;;;;5030745;28;20258;-54
2022/03/05 06:13:52;;;;;;;19.83;14.60;;;3.10;92.00;;;;;;5031387;28;20234;-51
2022/03/05 06:16:18;;;;;;;18.30;13.30;;;3.10;92.00;;;;;;5030602;28;20800;-48
2022/03/05 06:18:43;;;;;;;16.97;13.03;;;3.20;91.50;;;;;;5031202;28;20172;-50
2022/03/05 06:21:09;;;;;;;19.27;13.70;;;3.20;91.70;;;;;;5031403;28;20170;-52
2022/03/05 06:23:36;;;;;;;18.60;12.93;;;3.20;91.90;;;;;;5031607;28;20168;-48
2022/03/05 06:26:02;;;;;;;17.07;13.33;;;3.20;91.80;;;;;;5030150;28;20656;-50
2022/03/05 06:28:28;;;;;;;18.53;12.93;;;3.30;91.60;;;;;;5031544;28;20414;-52
2022/03/05 06:30:53;;;;;;;18.17;13.30;;;3.40;91.50;;;;;;5031634;28;20235;-51
2022/03/05 06:33:19;;;;;;;19.97;13.07;;;3.40;91.30;;;;;;5031013;28;20637;-52
2022/03/05 06:35:45;;;;;;;17.20;13.10;;;3.50;91.10;;;;;;5029625;28;20195;-56
2022/03/05 06:38:11;;;;;;;18.53;13.63;;;3.50;91.00;;;;;;5031290;28;20271;-53
2022/03/05 06:40:37;;;;;;;15.93;12.93;;;3.50;90.90;;;;;;5031298;28;20179;-51
2022/03/05 06:43:02;;;;;;;18.23;13.23;;;3.60;90.90;;;;;;5030649;28;20415;-56
2022/03/05 06:45:28;;;;;;;18.23;12.80;;;3.70;90.80;;;;;;5031412;28;20203;-51
2022/03/05 06:47:54;;;;;;;16.80;12.60;;;3.70;90.70;;;;;;5030894;28;20199;-52
2022/03/05 06:50:20;;;;;;;15.77;12.13;;;3.80;90.50;;;;;;5030423;28;20900;-57
2022/03/05 06:52:45;;;;;;;18.03;13.43;;;3.90;90.30;;;;;;5030963;28;20179;-58
2022/03/05 06:55:15;;;;;;;18.63;12.50;;;4.00;90.30;;;;;;5031412;28;20176;-50
2022/03/05 06:57:44;;;;;;;15.93;12.57;;;4.00;90.20;;;;;;5030581;28;20190;-52
2022/03/05 07:00:12;;;;;;;16.33;12.57;;;4.20;90.10;;;;;;5031300;28;20414;-50
2022/03/05 07:02:38;;;;;;;16.43;12.70;;;4.30;90.00;;;;;;5034743;28;20522;-52
2022/03/05 07:05:04;;;;;;;17.13;12.50;;;4.40;89.80;;;;;;5035129;28;20255;-56
2022/03/05 07:07:29;;;;;;;15.77;12.03;;;4.60;89.10;;;;;;5034519;28;20209;-52
2022/03/05 07:09:55;;;;;;;15.67;11.73;;;4.80;88.80;;;;;;5034785;28;20168;-55
2022/03/05 07:12:20;;;;;;;14.17;11.60;;;5.00;88.00;;;;;;5034679;28;20175;-55
2022/03/05 07:14:48;;;;;;;18.37;13.17;;;5.10;88.00;;;;;;5034370;28;20179;-59
2022/03/05 07:17:15;;;;;;;16.50;12.43;;;5.30;87.00;;;;;;5033834;28;20207;-52
2022/03/05 07:19:41;;;;;;;17.50;13.20;;;5.40;83.10;;;;;;5034727;28;20168;-55
2022/03/05 07:22:07;;;;;;;17.17;12.47;;;5.30;82.10;;;;;;5034983;28;20744;-54
2022/03/05 07:24:32;;;;;;;22.67;17.93;;;5.30;82.10;;;;;;5034359;28;20168;-58
2022/03/05 07:26:58;;;;;;;20.17;14.97;;;5.30;86.60;;;;;;5033059;28;20206;-57
2022/03/05 07:29:23;;;;;;;18.60;13.87;;;5.20;88.50;;;;;;5033256;28;20275;-56
2022/03/05 07:31:49;;;;;;;19.63;14.27;;;5.20;89.20;;;;;;5033146;28;20175;-51
2022/03/05 07:34:14;;;;;;;17.23;13.03;;;5.20;89.00;;;;;;5033742;28;20230;-52
2022/03/05 07:36:40;;;;;;;18.73;13.63;;;5.30;89.10;;;;;;5033945;28;20282;-57
2022/03/05 07:39:07;;;;;;;17.10;13.63;;;5.40;88.90;;;;;;5034329;28;20199;-56
2022/03/05 07:41:34;;;;;;;17.93;13.43;;;5.60;88.50;;;;;;5033972;28;20168;-52
2022/03/05 07:43:59;;;;;;;17.47;13.43;;;5.70;85.70;;;;;;5034335;28;20215;-58
2022/03/05 07:46:26;;;;;;;18.93;14.47;;;5.60;86.00;;;;;;5033703;28;20207;-51
2022/03/05 07:48:52;;;;;;;19.23;14.73;;;5.30;85.30;;;;;;5034128;28;20685;-54
2022/03/05 07:51:17;;;;;;;19.00;14.17;;;5.00;87.30;;;;;;5033585;28;20175;-57
2022/03/05 07:53:43;;;;;;;19.37;15.03;;;5.00;88.20;;;;;;5032945;28;20588;-56
2022/03/05 07:56:09;;;;;;;20.60;14.50;;;4.90;88.00;;;;;;5033436;28;20230;-51
2022/03/05 07:58:35;;;;;;;19.37;15.33;;;4.90;88.70;;;;;;5034419;28;20180;-58
2022/03/05 08:01:01;;;;;;;19.13;15.27;;;5.00;88.10;;;;;;5033061;28;20330;-56
2022/03/05 08:03:26;;;;;;;21.37;15.83;;;5.10;88.10;;;;;;5034166;28;20198;-58
2022/03/05 08:05:52;;;;;;;19.47;15.17;;;5.30;87.50;;;;;;5033898;28;20172;-54
2022/03/05 08:08:17;;;;;;;18.93;14.10;;;5.20;87.20;;;;;;5033940;28;20281;-58
2022/03/05 08:10:43;;;;;;;17.63;14.23;;;5.10;87.70;;;;;;5034147;28;20640;-54
2022/03/05 08:13:08;;;;;;;20.23;15.07;;;5.20;87.10;;;;;;5033002;28;20693;-57
2022/03/05 08:15:34;;;;;;;19.77;15.23;;;5.20;86.30;;;;;;5033524;28;20287;-56
2022/03/05 08:18:01;;;;;;;19.50;14.90;;;5.10;86.30;;;;;;5033966;28;20385;-58
2022/03/05 08:20:30;;;;;;;18.97;15.13;;;4.90;87.40;;;;;;5034025;28;20584;-57
2022/03/05 08:22:56;;;;;;;19.17;14.13;;;5.10;87.80;;;;;;5034069;28;20164;-57
2022/03/05 08:25:22;;;;;;;19.40;15.13;;;5.50;87.20;;;;;;5033813;28;20583;-58
2022/03/05 08:27:47;;;;;;;18.27;14.40;;;5.70;84.50;;;;;;5032492;28;20599;-59
2022/03/05 08:30:13;;;;;;;17.40;14.50;;;5.80;85.50;;;;;;5033744;28;20168;-58
2022/03/05 08:32:39;;;;;;;17.03;13.53;;;6.00;82.90;;;;;;5033829;28;20177;-58
2022/03/05 08:35:06;;;;;;;16.47;13.03;;;6.20;83.30;;;;;;5033578;28;20184;-58
2022/03/05 08:37:34;;;;;;;16.00;13.20;;;6.60;81.00;;;;;;5033182;28;20215;-58
2022/03/05 08:39:59;;;;;;;13.80;11.13;;;7.00;76.30;;;;;;5032358;28;20598;-58
2022/03/05 08:42:25;;;;;;;13.50;10.87;;;7.40;71.60;;;;;;5033577;28;20172;-58
2022/03/05 08:44:51;;;;;;;13.93;11.20;;;7.50;69.40;;;;;;5033441;28;20258;-59
2022/03/05 08:47:16;;;;;;;13.23;11.10;;;7.50;67.70;;;;;;5032423;28;20211;-57
2022/03/05 08:49:42;;;;;;;13.37;10.67;;;7.50;69.30;;;;;;5033161;28;20175;-58
2022/03/05 08:52:08;;;;;;;13.97;11.10;;;7.70;64.20;;;;;;5031539;28;20191;-55
2022/03/05 08:54:34;;;;;;;13.20;10.70;;;7.90;66.00;;;;;;5033334;28;20175;-56
2022/03/05 08:56:59;;;;;;;12.43;10.77;;;8.30;64.10;;;;;;5032818;28;20219;-57
2022/03/05 08:59:25;;;;;;;11.23;10.03;;;8.80;62.70;;;;;;5031944;28;20180;-55
2022/03/05 09:01:50;;;;;;;11.97;10.53;;;9.40;62.80;;;;;;5033280;28;20207;-53
2022/03/05 09:04:16;;;;;;;10.73;9.57;;;10.20;59.00;;;;;;5033098;28;20203;-54
2022/03/05 09:06:42;;;;;;;11.63;9.47;;;11.10;56.20;;;;;;5081066;22;20680;-51
2022/03/05 09:09:08;;;;;;;10.23;9.13;;;11.70;51.70;;;;;;5051274;28;20180;-55
2022/03/05 09:11:37;;;;;;;10.10;9.10;;;11.70;49.40;;;;;;5044072;28;20167;-55
2022/03/05 09:14:03;;;;;;;9.70;8.70;;;12.00;48.40;;;;;;5051413;28;20254;-52
2022/03/05 09:16:29;;;;;;;9.43;8.43;;;12.60;48.80;;;;;;5052935;28;20287;-54
2022/03/05 09:18:55;;;;;;;9.47;8.47;;;13.20;46.70;;;;;;5053109;28;20638;-51
2022/03/05 09:21:20;;;;;;;10.07;8.67;;;14.10;45.30;;;;;;5053290;28;20181;-51
2022/03/05 09:23:47;;;;;;;9.53;8.53;;;15.10;41.90;;;;;;5052678;28;20190;-53
2022/03/05 09:26:14;;;;;;;10.30;9.20;;;15.10;40.20;;;;;;5049388;28;20212;-52
2022/03/05 09:28:40;;;;;;;10.43;9.33;;;13.60;40.70;;;;;;5052431;28;20195;-53
2022/03/05 09:31:05;;;;;;;11.27;10.00;;;12.70;43.20;;;;;;5052609;28;20254;-54
2022/03/05 09:33:31;;;;;;;11.20;10.07;;;11.90;44.30;;;;;;5052479;28;20178;-56
2022/03/05 09:35:57;;;;;;;10.47;9.37;;;11.10;46.30;;;;;;5052133;28;20199;-53
2022/03/05 09:38:22;;;;;;;11.90;10.37;;;10.40;47.50;;;;;;5052425;28;20679;-49
2022/03/05 09:40:48;;;;;;;11.80;9.90;;;10.00;48.60;;;;;;5051286;28;20265;-55
2022/03/05 09:43:15;;;;;;;13.40;11.33;;;9.70;50.20;;;;;;5052209;28;20218;-53
2022/03/05 09:45:44;;;;;;;12.50;10.40;;;9.50;51.50;;;;;;5052355;28;20655;-52
2022/03/05 09:48:11;;;;;;;14.03;10.70;;;9.30;52.00;;;;;;5052268;28;20221;-54
2022/03/05 09:50:37;;;;;;;12.30;10.83;;;9.20;52.00;;;;;;5052353;28;20665;-53
2022/03/05 09:53:03;;;;;;;14.07;11.30;;;9.00;51.90;;;;;;5052436;28;20276;-55
2022/03/05 09:55:30;;;;;;;12.67;10.33;;;8.60;52.20;;;;;;5052060;28;20163;-53
2022/03/05 09:57:55;;;;;;;12.83;10.43;;;8.40;53.20;;;;;;5051962;28;20198;-52
2022/03/05 10:00:21;;;;;;;12.87;11.07;;;8.20;53.50;;;;;;5052239;28;20568;-55
2022/03/05 10:02:47;;;;;;;13.40;10.50;;;8.20;53.90;;;;;;5052077;28;20171;-51
2022/03/05 10:05:21;;;;;;;13.83;11.47;;;8.20;52.70;;;;;;5052490;28;20638;-52
2022/03/05 10:08:08;;;;;;;12.03;9.83;;;8.10;53.90;;;;;;5051731;28;20203;-53
2022/03/05 10:10:47;;;;;;;13.87;10.57;;;7.80;53.00;;;;;;5052297;28;20217;-54
2022/03/05 10:13:18;;;;;;;12.20;9.97;;;7.60;53.20;;;;;;5052067;28;20250;-53
2022/03/05 10:15:45;;;;;;;12.10;10.10;;;7.40;53.90;;;;;;5051494;28;20195;-53
2022/03/05 10:18:10;;;;;;;13.00;10.77;;;7.30;53.70;;;;;;5053030;28;20191;-54
2022/03/05 10:20:50;;;;;;;12.93;10.60;;;7.30;54.10;;;;;;5053090;28;20254;-52
2022/03/05 10:23:17;;;;;;;13.63;10.27;;;7.40;54.50;;;;;;5052763;28;20599;-53
2022/03/05 10:25:54;;;;;;;11.73;9.43;;;7.40;53.80;;;;;;5051907;28;20209;-53
2022/03/05 10:28:20;;;;;;;12.37;9.93;;;7.50;54.10;;;;;;5052234;28;20257;-53
2022/03/05 10:30:47;;;;;;;12.37;9.27;;;7.60;53.40;;;;;;5052163;28;20167;-52
2022/03/05 10:33:25;;;;;;;10.80;8.83;;;7.70;52.70;;;;;;5052810;28;20640;-51
2022/03/05 10:35:50;;;;;;;10.17;8.17;;;7.70;50.70;;;;;;5053913;28;20205;-52
2022/03/05 10:38:16;;;;;;;10.13;8.37;;;7.60;50.40;;;;;;5057124;28;20678;-52
2022/03/05 10:40:42;;;;;;;12.80;9.43;;;7.50;50.30;;;;;;5057295;28;20213;-51
2022/03/05 10:43:08;;;;;;;11.23;8.77;;;7.30;50.80;;;;;;5057308;28;20245;-51
2022/03/05 10:45:53;;;;;;;9.23;7.57;;;7.30;52.10;;;;;;5056556;28;20175;-52
2022/03/05 10:48:33;;;;;;;10.73;8.27;;;7.50;51.30;;;;;;5056322;28;20194;-52
2022/03/05 10:51:10;;;;;;;9.60;8.13;;;7.70;50.10;;;;;;5056816;28;20175;-54
2022/03/05 10:53:39;;;;;;;10.03;7.93;;;8.00;49.70;;;;;;5055891;28;20182;-51
2022/03/05 10:56:27;;;;;;;9.83;7.87;;;8.50;48.90;;;;;;5055709;28;20676;-52
2022/03/05 10:59:07;;;;;;;10.43;8.10;;;8.90;47.50;;;;;;5056431;28;20262;-52
2022/03/05 11:01:36;;;;;;;9.47;8.40;;;8.80;47.90;;;;;;5056238;28;20177;-51
2022/03/05 11:04:02;;;;;;;10.23;8.03;;;8.80;48.20;;;;;;5056111;28;20175;-49
2022/03/05 11:06:28;;;;;;;9.87;8.10;;;8.60;48.90;;;;;;5055512;28;20183;-52
2022/03/05 11:08:54;;;;;;;9.37;7.63;;;8.60;48.60;;;;;;5055776;28;20308;-51
2022/03/05 11:11:21;;;;;;;8.17;6.87;;;8.60;49.10;;;;;;5056296;28;20207;-52
2022/03/05 11:13:46;;;;;;;8.67;7.40;;;8.30;49.10;;;;;;5055830;28;20183;-51
2022/03/05 11:16:12;;;;;;;8.57;7.00;;;8.20;49.10;;;;;;5055948;28;20276;-51
2022/03/05 11:18:42;;;;;;;8.40;6.87;;;8.00;48.00;;;;;;5056207;28;20223;-53
2022/03/05 11:21:08;;;;;;;8.10;6.90;;;7.80;48.40;;;;;;5056412;28;20224;-53
2022/03/05 11:23:36;;;;;;;8.67;7.00;;;7.50;48.60;;;;;;5056270;28;20659;-53
2022/03/05 11:26:03;;;;;;;10.50;7.67;;;7.20;49.40;;;;;;5055165;28;20185;-52
2022/03/05 11:28:36;;;;;;;8.93;7.03;;;7.20;50.50;;;;;;5055613;28;20286;-52
2022/03/05 11:31:17;;;;;;;9.10;7.57;;;7.30;50.50;;;;;;5055786;28;20555;-52
2022/03/05 11:33:44;;;;;;;12.37;8.97;;;7.30;51.20;;;;;;5056493;28;20190;-51
2022/03/05 11:36:36;;;;;;;9.50;7.47;;;7.20;51.70;;;;;;5055843;28;20276;-55
2022/03/05 11:39:20;;;;;;;8.87;7.07;;;6.80;51.40;;;;;;5056118;28;20167;-53
2022/03/05 11:42:08;;;;;;;7.67;6.40;;;6.70;52.20;;;;;;5056056;28;20261;-55
2022/03/05 11:44:42;;;;;;;8.37;6.80;;;6.70;50.40;;;;;;5055896;28;20666;-52
2022/03/05 11:47:21;;;;;;;7.80;6.70;;;6.80;51.00;;;;;;5055358;28;20202;-53
2022/03/05 11:49:59;;;;;;;8.07;6.87;;;6.60;50.90;;;;;;5055708;28;20640;-53
2022/03/05 11:52:39;;;;;;;8.10;6.87;;;6.50;50.90;;;;;;5055914;28;20663;-53
2022/03/05 11:55:13;;;;;;;9.47;7.43;;;6.60;51.60;;;;;;5054996;28;20183;-54
2022/03/05 11:57:41;;;;;;;10.07;8.20;;;6.70;51.60;;;;;;5055444;28;20238;-54
2022/03/05 12:00:07;;;;;;;10.50;7.70;;;6.80;51.40;;;;;;5055790;28;20522;-53
2022/03/05 12:02:43;;;;;;;9.23;7.83;;;6.80;52.00;;;;;;5056264;28;20175;-51
2022/03/05 12:05:09;;;;;;;10.03;7.70;;;6.70;52.00;;;;;;5055951;28;20250;-53
2022/03/05 12:07:40;;;;;;;9.30;7.83;;;6.60;52.30;;;;;;5055532;28;20717;-55
2022/03/05 12:10:14;;;;;;;9.53;7.03;;;6.80;52.90;;;;;;5057264;28;20271;-52
2022/03/05 12:13:03;;;;;;;9.27;7.33;;;6.70;50.90;;;;;;5057988;28;20183;-52
2022/03/05 12:15:43;;;;;;;9.27;7.53;;;6.40;52.20;;;;;;5058237;28;20183;-49
2022/03/05 12:18:14;;;;;;;9.50;7.70;;;6.30;52.10;;;;;;5055512;28;20187;-52
2022/03/05 12:20:43;;;;;;;9.07;7.53;;;6.30;52.00;;;;;;5055740;28;20236;-49
2022/03/05 12:23:15;;;;;;;9.37;7.57;;;6.40;52.20;;;;;;5055814;28;20175;-52
2022/03/05 12:25:44;;;;;;;8.83;7.30;;;6.60;52.60;;;;;;5055667;28;20692;-52
2022/03/05 12:28:25;;;;;;;9.97;6.90;;;6.70;51.60;;;;;;5055997;28;20203;-55
2022/03/05 12:30:58;;;;;;;8.03;6.70;;;6.80;51.10;;;;;;5055513;28;20190;-56
2022/03/05 12:33:24;;;;;;;8.00;6.67;;;6.80;51.20;;;;;;5055944;28;20717;-52
2022/03/05 12:35:50;;;;;;;7.90;6.37;;;6.80;49.30;;;;;;5055767;28;20207;-51
2022/03/05 12:38:20;;;;;;;7.07;5.87;;;6.70;49.20;;;;;;5055723;28;20283;-51
2022/03/05 12:40:46;;;;;;;8.13;6.70;;;6.60;48.10;;;;;;5055845;28;20265;-52
2022/03/05 12:43:12;;;;;;;8.43;5.87;;;6.50;48.50;;;;;;5055561;28;20211;-55